Time;durP1;ratioP1;P1;durP2;ratioP2;P2;SDS_P1;SDS_P2;PMS_P1;PMS_P2;Temp;Humidity;BMP_temperature;BMP_pressure;BME280_temperature;BME280_humidity;BME280_pressure;Samples;Min_cycle;Max_cycle;Signal;HPM_P1;HPM_P2
2024/04/13 00:00:16;;;;;;;1.77;0.90;;;;;20.20;101635.00;;;;2219944;26;20255;-57
2024/04/13 00:01:19;;;;;;;2.25;1.10;;;;;20.20;101628.00;;;;2220866;26;22650;-58
2024/04/13 00:02:20;;;;;;;1.90;1.10;;;;;20.20;101633.00;;;;2228355;26;20246;-56
2024/04/13 00:03:20;;;;;;;2.67;1.20;;;;;20.20;101632.00;;;;2228983;26;20302;-59
2024/04/13 00:04:23;;;;;;;2.37;0.97;;;;;20.20;101635.00;;;;2224516;26;20715;-55
2024/04/13 00:05:23;;;;;;;2.10;1.15;;;;;20.20;101631.00;;;;2226657;26;20629;-56
2024/04/13 00:06:24;;;;;;;2.80;1.30;;;;;20.20;101629.00;;;;2213663;26;20266;-57
2024/04/13 00:07:24;;;;;;;2.20;1.23;;;;;20.20;101608.00;;;;2217366;26;20640;-57
2024/04/13 00:08:25;;;;;;;2.40;1.30;;;;;20.20;101618.00;;;;2224479;26;20261;-58
2024/04/13 00:09:26;;;;;;;2.50;1.10;;;;;20.20;101619.00;;;;2216541;26;20363;-58
2024/04/13 00:10:26;;;;;;;2.10;1.10;;;;;20.20;101620.00;;;;2217868;26;20700;-57
2024/04/13 00:11:26;;;;;;;2.50;1.20;;;;;20.20;101618.00;;;;2220500;26;20788;-57
2024/04/13 00:12:27;;;;;;;2.10;1.10;;;;;20.20;101621.00;;;;2245572;26;20257;-57
2024/04/13 00:13:30;;;;;;;2.90;1.10;;;;;20.20;101622.00;;;;2233425;26;22556;-55
2024/04/13 00:14:30;;;;;;;2.20;1.02;;;;;20.20;101619.00;;;;2217164;26;20985;-60
2024/04/13 00:15:30;;;;;;;2.37;1.13;;;;;20.20;101619.00;;;;2218377;26;20310;-59
2024/04/13 00:16:31;;;;;;;1.80;0.80;;;;;20.20;101619.00;;;;2216995;26;20297;-60
2024/04/13 00:17:31;;;;;;;3.20;1.30;;;;;20.20;101617.00;;;;2226515;26;20259;-59
2024/04/13 00:18:32;;;;;;;1.93;1.00;;;;;20.20;101622.00;;;;2219665;26;20267;-57
2024/04/13 00:19:33;;;;;;;2.67;1.00;;;;;20.20;101617.00;;;;2218886;26;20934;-57
2024/04/13 00:20:33;;;;;;;1.90;1.10;;;;;20.20;101618.00;;;;2222043;26;20298;-55
2024/04/13 00:21:34;;;;;;;2.23;1.23;;;;;20.20;101605.00;;;;2222181;26;20306;-56
2024/04/13 00:22:35;;;;;;;2.60;1.03;;;;;20.20;101615.00;;;;2233059;26;20362;-57
2024/04/13 00:23:35;;;;;;;2.22;1.00;;;;;20.20;101619.00;;;;2231715;26;20258;-56
2024/04/13 00:24:36;;;;;;;2.57;1.30;;;;;20.20;101603.00;;;;2230836;26;20785;-55
2024/04/13 00:25:36;;;;;;;2.23;1.03;;;;;20.20;101608.00;;;;2222248;26;20678;-57
2024/04/13 00:26:37;;;;;;;2.40;1.10;;;;;20.20;101605.00;;;;2209107;26;20575;-58
2024/04/13 00:27:37;;;;;;;2.57;1.33;;;;;20.20;101598.00;;;;2219967;26;20659;-57
2024/04/13 00:28:37;;;;;;;2.10;1.10;;;;;20.20;101612.00;;;;2225869;26;20250;-59
2024/04/13 00:29:37;;;;;;;1.90;1.20;;;;;20.20;101605.00;;;;2224427;26;20252;-58
2024/04/13 00:30:38;;;;;;;2.40;1.17;;;;;20.20;101605.00;;;;2222654;26;20255;-59
2024/04/13 00:31:38;;;;;;;2.30;1.50;;;;;20.20;101614.00;;;;2208612;26;20290;-55
2024/04/13 00:32:38;;;;;;;2.13;0.87;;;;;20.20;101603.00;;;;2222651;26;20266;-55
2024/04/13 00:33:39;;;;;;;1.90;1.20;;;;;19.90;101601.00;;;;2219081;26;20259;-57
2024/04/13 00:34:39;;;;;;;2.40;1.40;;;;;20.20;101600.00;;;;2219205;26;20298;-56
2024/04/13 00:35:39;;;;;;;2.20;1.13;;;;;20.20;101597.00;;;;2224587;26;20260;-55
2024/04/13 00:36:40;;;;;;;2.77;1.10;;;;;20.20;101600.00;;;;2213230;26;20321;-56
2024/04/13 00:37:40;;;;;;;2.50;1.13;;;;;20.20;101595.00;;;;2221367;26;20297;-59
2024/04/13 00:38:40;;;;;;;2.63;1.00;;;;;20.20;101614.00;;;;2219560;26;20723;-55
2024/04/13 00:39:41;;;;;;;2.50;1.30;;;;;20.20;101606.00;;;;2220810;26;20728;-56
2024/04/13 00:40:42;;;;;;;1.97;1.07;;;;;20.20;101596.00;;;;2219378;26;20623;-58
2024/04/13 00:41:42;;;;;;;1.97;1.07;;;;;20.20;101606.00;;;;2214016;26;20731;-57
2024/04/13 00:42:42;;;;;;;3.37;1.30;;;;;20.20;101602.00;;;;2225302;26;20991;-58
2024/04/13 00:43:43;;;;;;;2.00;1.07;;;;;20.20;101604.00;;;;2225867;26;20282;-58
2024/04/13 00:44:43;;;;;;;2.30;1.30;;;;;20.20;101597.00;;;;2222246;26;20309;-55
2024/04/13 00:45:43;;;;;;;3.10;1.30;;;;;20.20;101600.00;;;;2219308;26;20289;-58
2024/04/13 00:46:44;;;;;;;2.70;1.17;;;;;20.20;101605.00;;;;2207881;26;20259;-57
2024/04/13 00:47:45;;;;;;;2.37;1.40;;;;;20.00;101597.00;;;;2225184;26;20297;-59
2024/04/13 00:48:48;;;;;;;2.42;1.35;;;;;20.20;101609.00;;;;2219585;26;20251;-58
2024/04/13 00:49:49;;;;;;;2.75;1.23;;;;;20.20;101595.00;;;;2217945;26;20246;-58
2024/04/13 00:50:54;;;;;;;2.10;1.30;;;;;20.20;101599.00;;;;2206976;26;20925;-56
2024/04/13 00:51:56;;;;;;;2.45;1.42;;;;;20.20;101608.00;;;;2221895;26;20362;-58
2024/04/13 00:52:56;;;;;;;2.25;1.00;;;;;20.20;101607.00;;;;2204494;26;20709;-57
2024/04/13 00:53:57;;;;;;;2.60;1.20;;;;;20.20;101602.00;;;;2197610;26;20290;-59
2024/04/13 00:54:57;;;;;;;2.47;1.30;;;;;20.20;101604.00;;;;2203826;26;20252;-58
2024/04/13 00:56:00;;;;;;;2.63;1.20;;;;;20.20;101616.00;;;;2193372;26;20244;-57
2024/04/13 00:57:00;;;;;;;2.28;1.33;;;;;20.20;101607.00;;;;2217081;26;20244;-57
2024/04/13 00:58:01;;;;;;;2.17;1.10;;;;;20.20;101603.00;;;;2221042;26;20708;-57
2024/04/13 00:59:01;;;;;;;2.23;1.23;;;;;20.20;101590.00;;;;2223153;26;20629;-56
2024/04/13 01:00:05;;;;;;;1.80;0.90;;;;;20.20;101604.00;;;;2206055;26;20248;-57
2024/04/13 01:01:05;;;;;;;2.50;1.33;;;;;20.20;101604.00;;;;2192592;26;20336;-55
2024/04/13 01:02:08;;;;;;;2.60;1.20;;;;;20.20;101606.00;;;;2207904;26;20256;-57
2024/04/13 01:03:08;;;;;;;2.33;1.40;;;;;20.20;101601.00;;;;2231936;26;20357;-56
2024/04/13 01:04:09;;;;;;;2.00;0.97;;;;;20.20;101597.00;;;;2231080;26;20724;-56
2024/04/13 01:05:13;;;;;;;2.17;1.37;;;;;20.20;101602.00;;;;2218457;26;21187;-55
2024/04/13 01:06:13;;;;;;;2.42;1.30;;;;;20.20;101597.00;;;;2207969;26;20628;-59
2024/04/13 01:07:16;;;;;;;2.87;1.30;;;;;20.20;101599.00;;;;2219229;26;20255;-60
2024/04/13 01:08:18;;;;;;;2.40;1.20;;;;;20.20;101592.00;;;;2207216;26;20255;-57
2024/04/13 01:09:20;;;;;;;2.85;1.55;;;;;20.20;101595.00;;;;2205881;26;20252;-56
2024/04/13 01:10:21;;;;;;;2.63;1.30;;;;;20.20;101593.00;;;;2221901;26;20294;-57
2024/04/13 01:11:21;;;;;;;2.17;1.20;;;;;20.20;101593.00;;;;2217675;26;20254;-57
2024/04/13 01:12:21;;;;;;;2.00;1.20;;;;;20.20;101593.00;;;;2219153;26;20362;-58
2024/04/13 01:13:22;;;;;;;2.30;1.33;;;;;20.20;101588.00;;;;2217925;26;20375;-57
2024/04/13 01:14:22;;;;;;;3.20;1.30;;;;;20.20;101590.00;;;;2218303;26;20255;-58
2024/04/13 01:15:27;;;;;;;2.30;1.40;;;;;20.20;101596.00;;;;2212265;26;20251;-56
2024/04/13 01:16:28;;;;;;;2.45;1.58;;;;;20.20;101589.00;;;;2197060;26;20264;-57
2024/04/13 01:17:28;;;;;;;2.10;1.20;;;;;20.20;101589.00;;;;2229417;26;20262;-55
2024/04/13 01:18:29;;;;;;;4.80;1.40;;;;;20.20;101588.00;;;;2224825;26;20259;-57
2024/04/13 01:19:31;;;;;;;2.30;1.30;;;;;20.20;101589.00;;;;2229258;26;20359;-57
2024/04/13 01:20:33;;;;;;;2.20;1.30;;;;;20.20;101585.00;;;;2226642;26;20315;-58
2024/04/13 01:21:33;;;;;;;2.25;1.35;;;;;20.20;101588.00;;;;2208999;26;20263;-57
2024/04/13 01:22:34;;;;;;;3.57;1.60;;;;;20.20;101571.00;;;;2217718;26;20251;-58
2024/04/13 01:23:34;;;;;;;2.77;1.13;;;;;20.20;101588.00;;;;2220044;26;20251;-61
2024/04/13 01:24:34;;;;;;;2.10;1.07;;;;;20.20;101593.00;;;;2203256;26;20256;-61
2024/04/13 01:25:35;;;;;;;2.10;1.10;;;;;20.20;101595.00;;;;2216128;26;20359;-60
2024/04/13 01:26:37;;;;;;;2.70;1.40;;;;;20.20;101590.00;;;;2208793;26;20259;-59
2024/04/13 01:27:38;;;;;;;2.65;1.40;;;;;20.20;101595.00;;;;2220956;26;20305;-58
2024/04/13 01:28:38;;;;;;;2.13;1.30;;;;;20.20;101597.00;;;;2225881;26;20745;-59
2024/04/13 01:29:39;;;;;;;2.77;1.50;;;;;20.20;101600.00;;;;2226024;26;20364;-58
2024/04/13 01:30:39;;;;;;;2.30;1.37;;;;;20.20;101577.00;;;;2217433;26;20311;-54
2024/04/13 01:31:39;;;;;;;2.10;1.10;;;;;20.20;101594.00;;;;2192279;26;20260;-56
2024/04/13 01:32:40;;;;;;;4.33;1.13;;;;;20.20;101593.00;;;;2216972;26;20302;-57
2024/04/13 01:33:40;;;;;;;3.13;1.30;;;;;19.80;101590.00;;;;2219270;26;20259;-57
2024/04/13 01:34:40;;;;;;;2.87;1.60;;;;;20.20;101587.00;;;;2218275;26;20333;-57
2024/04/13 01:35:41;;;;;;;3.30;1.20;;;;;20.20;101591.00;;;;2214302;26;20830;-56
2024/04/13 01:36:41;;;;;;;2.43;1.50;;;;;20.20;101586.00;;;;2211851;26;20252;-57
2024/04/13 01:37:42;;;;;;;2.60;1.40;;;;;20.20;101581.00;;;;2203784;26;20252;-57
2024/04/13 01:38:42;;;;;;;1.90;1.23;;;;;20.20;101578.00;;;;2224912;26;20247;-58
2024/04/13 01:39:43;;;;;;;2.23;1.20;;;;;20.20;101592.00;;;;2215823;26;20259;-58
2024/04/13 01:40:43;;;;;;;2.37;1.43;;;;;20.20;101575.00;;;;2215834;26;20302;-58
2024/04/13 01:41:51;;;;;;;2.17;0.90;;;;;20.20;101577.00;;;;2209171;26;20259;-57
2024/04/13 01:42:51;;;;;;;2.35;1.35;;;;;20.20;101581.00;;;;2221212;26;20296;-56
2024/04/13 01:43:51;;;;;;;2.30;1.30;;;;;20.20;101582.00;;;;2222800;26;20300;-57
2024/04/13 01:44:51;;;;;;;2.53;1.47;;;;;20.20;101586.00;;;;2229956;26;20305;-59
2024/04/13 01:45:52;;;;;;;4.00;1.40;;;;;20.20;101584.00;;;;2223314;26;20259;-58
2024/04/13 01:46:52;;;;;;;3.70;1.60;;;;;20.20;101598.00;;;;2208741;26;20259;-58
2024/04/13 01:47:53;;;;;;;2.53;1.50;;;;;20.20;101582.00;;;;2229019;26;20285;-57
2024/04/13 01:48:53;;;;;;;2.47;1.20;;;;;20.20;101580.00;;;;2224897;26;20294;-57
2024/04/13 01:49:53;;;;;;;2.90;1.40;;;;;20.20;101581.00;;;;2218854;26;20252;-56
2024/04/13 01:50:54;;;;;;;2.70;1.50;;;;;20.20;101578.00;;;;2210910;26;20302;-58
2024/04/13 01:51:54;;;;;;;2.80;1.20;;;;;20.20;101578.00;;;;2226282;26;20254;-57
2024/04/13 01:52:54;;;;;;;2.47;1.40;;;;;20.20;101582.00;;;;2219568;26;20267;-58
2024/04/13 01:53:55;;;;;;;2.27;1.33;;;;;20.20;101580.00;;;;2223547;26;20304;-56
2024/04/13 01:54:55;;;;;;;2.90;1.30;;;;;20.20;101569.00;;;;2218710;26;20256;-59
2024/04/13 01:55:56;;;;;;;3.00;1.53;;;;;20.20;101575.00;;;;2214872;26;20254;-58
2024/04/13 01:56:56;;;;;;;2.90;1.73;;;;;20.20;101576.00;;;;2218897;26;20256;-59
2024/04/13 01:57:56;;;;;;;2.60;1.33;;;;;20.20;101570.00;;;;2219102;26;20269;-60
2024/04/13 01:58:57;;;;;;;2.80;1.53;;;;;20.20;101574.00;;;;2219419;26;20598;-58
2024/04/13 01:59:57;;;;;;;2.23;1.30;;;;;20.20;101568.00;;;;2230088;26;21030;-56
2024/04/13 02:01:03;;;;;;;2.17;1.20;;;;;20.10;101564.00;;;;2210478;26;20252;-57
2024/04/13 02:02:03;;;;;;;1.95;1.10;;;;;19.70;101572.00;;;;2219661;26;20286;-58
2024/04/13 02:03:04;;;;;;;2.40;1.30;;;;;20.20;101568.00;;;;2218760;26;20701;-56
2024/04/13 02:04:05;;;;;;;1.90;1.00;;;;;20.20;101574.00;;;;2218912;26;20251;-58
2024/04/13 02:05:06;;;;;;;3.03;1.10;;;;;20.20;101607.00;;;;2218809;26;20247;-57
2024/04/13 02:06:08;;;;;;;2.13;1.35;;;;;20.20;101571.00;;;;2212146;26;20413;-59
2024/04/13 02:07:09;;;;;;;3.20;1.60;;;;;20.20;101573.00;;;;2239570;26;20254;-59
2024/04/13 02:08:10;;;;;;;2.40;1.20;;;;;20.20;101571.00;;;;2232038;26;20249;-55
2024/04/13 02:09:13;;;;;;;2.40;1.20;;;;;20.20;101572.00;;;;2219330;26;20338;-56
2024/04/13 02:10:14;;;;;;;2.50;1.20;;;;;20.20;101569.00;;;;2222509;26;20267;-56
2024/04/13 02:11:16;;;;;;;3.00;1.25;;;;;20.20;101565.00;;;;2206600;26;20302;-57
2024/04/13 02:12:17;;;;;;;2.58;1.50;;;;;20.20;101562.00;;;;2221724;26;20337;-58
2024/04/13 02:13:17;;;;;;;2.70;1.70;;;;;20.20;101559.00;;;;2203926;26;20458;-58
2024/04/13 02:14:18;;;;;;;3.20;1.50;;;;;20.20;101568.00;;;;2217266;26;20813;-58
2024/04/13 02:15:18;;;;;;;2.17;1.20;;;;;20.20;101564.00;;;;2220752;26;20723;-56
2024/04/13 02:16:18;;;;;;;2.67;1.50;;;;;20.20;101565.00;;;;2209031;26;20348;-57
2024/04/13 02:17:18;;;;;;;2.20;1.30;;;;;20.20;101566.00;;;;2219010;26;21251;-57
2024/04/13 02:18:19;;;;;;;2.90;1.57;;;;;20.20;101568.00;;;;2218689;26;20774;-57
2024/04/13 02:19:19;;;;;;;2.67;1.53;;;;;20.20;101559.00;;;;2219117;26;21182;-58
2024/04/13 02:20:19;;;;;;;2.40;1.40;;;;;20.20;101563.00;;;;2215875;26;20307;-57
2024/04/13 02:21:20;;;;;;;3.47;1.57;;;;;20.20;101567.00;;;;2208673;26;20340;-57
2024/04/13 02:22:21;;;;;;;2.43;1.30;;;;;20.20;101566.00;;;;2229112;26;20253;-55
2024/04/13 02:23:22;;;;;;;2.50;1.20;;;;;20.20;101568.00;;;;2231278;26;20332;-59
2024/04/13 02:24:22;;;;;;;2.03;1.20;;;;;20.20;101566.00;;;;2218987;26;20374;-56
2024/04/13 02:25:23;;;;;;;2.00;1.00;;;;;20.20;101565.00;;;;2219017;26;20620;-58
2024/04/13 02:26:23;;;;;;;2.80;1.40;;;;;20.20;101559.00;;;;2210327;26;22051;-58
2024/04/13 02:27:23;;;;;;;2.30;1.10;;;;;20.20;101557.00;;;;2226242;26;20258;-56
2024/04/13 02:28:24;;;;;;;2.50;1.40;;;;;20.20;101555.00;;;;2226542;26;20258;-58
2024/04/13 02:29:25;;;;;;;2.20;1.40;;;;;20.20;101600.00;;;;2217814;26;20758;-56
2024/04/13 02:30:25;;;;;;;2.10;1.27;;;;;20.20;101568.00;;;;2215779;26;20642;-58
2024/04/13 02:31:26;;;;;;;2.33;1.40;;;;;20.20;101553.00;;;;2215196;26;20251;-57
2024/04/13 02:32:26;;;;;;;2.07;1.17;;;;;20.20;101552.00;;;;2217694;26;20678;-58
2024/04/13 02:33:26;;;;;;;1.90;1.10;;;;;20.20;101558.00;;;;2218871;26;20751;-58
2024/04/13 02:34:27;;;;;;;2.07;1.40;;;;;20.20;101549.00;;;;2211617;26;20736;-58
2024/04/13 02:35:27;;;;;;;2.77;1.40;;;;;20.20;101552.00;;;;2211305;26;20949;-56
2024/04/13 02:36:27;;;;;;;3.07;1.33;;;;;20.20;101549.00;;;;2212002;26;20365;-56
2024/04/13 02:37:28;;;;;;;2.17;1.40;;;;;20.20;101552.00;;;;2214887;26;20251;-59
2024/04/13 02:38:28;;;;;;;2.57;1.47;;;;;20.20;101564.00;;;;2217006;26;20315;-57
2024/04/13 02:39:30;;;;;;;2.80;1.60;;;;;20.20;101553.00;;;;2220398;26;20323;-57
2024/04/13 02:40:31;;;;;;;2.30;1.40;;;;;20.20;101551.00;;;;2215805;26;21194;-59
2024/04/13 02:41:32;;;;;;;2.40;1.30;;;;;20.20;101554.00;;;;2215856;26;20309;-56
2024/04/13 02:42:32;;;;;;;2.43;1.67;;;;;20.20;101547.00;;;;2226183;26;20296;-57
2024/04/13 02:43:34;;;;;;;2.63;1.77;;;;;20.20;101541.00;;;;2219842;26;20544;-57
2024/04/13 02:44:35;;;;;;;2.42;1.30;;;;;20.20;101543.00;;;;2213639;26;21161;-57
2024/04/13 02:45:35;;;;;;;2.97;1.30;;;;;20.20;101542.00;;;;2216337;26;20247;-58
2024/04/13 02:46:35;;;;;;;3.03;1.67;;;;;20.20;101546.00;;;;2211885;26;20248;-58
2024/04/13 02:47:36;;;;;;;2.60;1.47;;;;;20.20;101527.00;;;;2218848;26;20299;-55
2024/04/13 02:48:43;;;;;;;2.90;1.50;;;;;20.10;101545.00;;;;2222561;26;20288;-58
2024/04/13 02:49:43;;;;;;;2.50;1.50;;;;;20.10;101534.00;;;;2218809;26;20259;-59
2024/04/13 02:50:44;;;;;;;2.57;1.27;;;;;20.10;101546.00;;;;2226756;26;20750;-56
2024/04/13 02:51:44;;;;;;;2.60;1.60;;;;;20.20;101536.00;;;;2207161;26;20306;-58
2024/04/13 02:52:45;;;;;;;2.63;1.20;;;;;20.20;101541.00;;;;2217821;26;20294;-59
2024/04/13 02:53:45;;;;;;;2.20;1.20;;;;;20.20;101532.00;;;;2222686;26;20262;-58
2024/04/13 02:54:45;;;;;;;3.57;1.80;;;;;20.20;101538.00;;;;2218992;26;20657;-57
2024/04/13 02:55:46;;;;;;;2.20;1.30;;;;;20.20;101532.00;;;;2223331;26;20623;-60
2024/04/13 02:56:46;;;;;;;2.50;1.53;;;;;20.20;101531.00;;;;2212941;26;20683;-55
2024/04/13 02:57:46;;;;;;;2.43;1.40;;;;;20.20;101539.00;;;;2239108;26;20288;-55
2024/04/13 02:58:47;;;;;;;3.00;1.53;;;;;20.20;101537.00;;;;2229582;26;20258;-58
2024/04/13 02:59:47;;;;;;;2.40;1.43;;;;;20.20;101525.00;;;;2233090;26;20254;-57
2024/04/13 03:00:53;;;;;;;2.50;1.20;;;;;20.20;101529.00;;;;2231039;26;20945;-58
2024/04/13 03:01:54;;;;;;;2.60;1.25;;;;;20.20;101525.00;;;;2220736;26;20267;-58
2024/04/13 03:02:54;;;;;;;2.78;1.75;;;;;20.20;101534.00;;;;2227675;26;20250;-56
2024/04/13 03:03:55;;;;;;;3.60;1.47;;;;;20.20;101534.00;;;;2223600;26;20259;-56
2024/04/13 03:04:55;;;;;;;2.77;1.20;;;;;20.20;101526.00;;;;2219460;26;20263;-57
2024/04/13 03:06:03;;;;;;;2.50;1.30;;;;;20.20;101531.00;;;;2210137;26;20285;-60
2024/04/13 03:07:04;;;;;;;2.70;1.70;;;;;20.20;101533.00;;;;2218791;26;20659;-58
2024/04/13 03:08:05;;;;;;;2.30;1.30;;;;;20.20;101534.00;;;;2217918;26;23080;-59
2024/04/13 03:09:05;;;;;;;3.43;1.80;;;;;20.20;101539.00;;;;2218711;26;20326;-58
2024/04/13 03:10:06;;;;;;;3.30;1.60;;;;;20.20;101540.00;;;;2224469;26;20823;-58
2024/04/13 03:11:11;;;;;;;3.13;1.50;;;;;20.20;101535.00;;;;2220220;26;20336;-55
2024/04/13 03:12:13;;;;;;;3.13;1.40;;;;;20.20;101535.00;;;;2219756;26;20285;-57
2024/04/13 03:13:13;;;;;;;2.55;1.50;;;;;20.20;101534.00;;;;2218096;26;20585;-58
2024/04/13 03:14:14;;;;;;;2.87;1.70;;;;;20.20;101539.00;;;;2233521;26;20253;-57
2024/04/13 03:15:14;;;;;;;2.30;1.40;;;;;20.20;101536.00;;;;2225362;26;20257;-59
2024/04/13 03:16:14;;;;;;;2.27;1.10;;;;;20.10;101543.00;;;;2208985;26;20358;-55
2024/04/13 03:17:15;;;;;;;2.53;1.50;;;;;20.10;101542.00;;;;2220471;26;20364;-57
2024/04/13 03:18:15;;;;;;;3.03;1.30;;;;;20.20;101533.00;;;;2229341;26;20886;-59
2024/04/13 03:19:16;;;;;;;2.73;1.40;;;;;20.20;101558.00;;;;2218570;26;20267;-55
2024/04/13 03:20:16;;;;;;;2.60;1.50;;;;;20.20;101543.00;;;;2218207;26;20368;-58
2024/04/13 03:21:16;;;;;;;2.23;1.43;;;;;20.20;101538.00;;;;2207475;26;20297;-58
2024/04/13 03:22:18;;;;;;;3.00;1.53;;;;;20.10;101539.00;;;;2219147;26;20251;-57
2024/04/13 03:23:18;;;;;;;3.45;1.73;;;;;20.10;101539.00;;;;2214998;26;20580;-58
2024/04/13 03:24:18;;;;;;;2.30;1.37;;;;;19.80;101540.00;;;;2222389;26;20297;-59
2024/04/13 03:25:19;;;;;;;3.10;1.60;;;;;20.20;101538.00;;;;2217751;26;20252;-57
2024/04/13 03:26:19;;;;;;;2.20;1.33;;;;;20.20;101539.00;;;;2207672;26;20267;-57
2024/04/13 03:27:19;;;;;;;2.37;1.40;;;;;20.20;101539.00;;;;2230911;26;20312;-57
2024/04/13 03:28:26;;;;;;;2.63;1.80;;;;;20.20;101539.00;;;;2223793;26;20251;-56
2024/04/13 03:29:26;;;;;;;2.70;1.60;;;;;20.20;101533.00;;;;2228332;26;20257;-57
2024/04/13 03:30:27;;;;;;;2.73;1.43;;;;;20.20;101543.00;;;;2229061;26;20296;-58
2024/04/13 03:31:27;;;;;;;2.50;1.70;;;;;20.20;101538.00;;;;2209840;26;20254;-59
2024/04/13 03:32:27;;;;;;;2.73;1.47;;;;;20.20;101536.00;;;;2212992;26;20255;-59
2024/04/13 03:33:28;;;;;;;2.20;1.30;;;;;20.10;101540.00;;;;2216642;26;20334;-56
2024/04/13 03:34:28;;;;;;;3.90;1.80;;;;;20.10;101536.00;;;;2225369;26;20715;-55
2024/04/13 03:35:28;;;;;;;2.83;1.60;;;;;20.20;101536.00;;;;2218080;26;20851;-57
2024/04/13 03:36:30;;;;;;;2.20;1.40;;;;;20.20;101542.00;;;;2209233;26;20591;-58
2024/04/13 03:37:30;;;;;;;2.20;1.42;;;;;20.20;101536.00;;;;2221215;26;21145;-56
2024/04/13 03:38:30;;;;;;;2.57;1.50;;;;;20.20;101542.00;;;;2218759;26;20290;-56
2024/04/13 03:39:31;;;;;;;2.40;1.20;;;;;20.20;101537.00;;;;2218552;26;20293;-56
2024/04/13 03:40:33;;;;;;;2.20;1.30;;;;;20.20;101531.00;;;;2218102;26;20255;-57
2024/04/13 03:41:33;;;;;;;2.55;1.58;;;;;20.20;101534.00;;;;2207379;26;20251;-58
2024/04/13 03:42:34;;;;;;;3.33;1.90;;;;;20.20;101535.00;;;;2218315;26;20290;-57
2024/04/13 03:43:35;;;;;;;2.90;1.10;;;;;20.10;101534.00;;;;2221256;26;20259;-59
2024/04/13 03:44:36;;;;;;;2.08;1.35;;;;;20.10;101526.00;;;;2228270;26;20259;-58
2024/04/13 03:45:36;;;;;;;3.07;1.30;;;;;20.20;101529.00;;;;2217488;26;20286;-57
2024/04/13 03:46:36;;;;;;;3.30;1.63;;;;;20.20;101525.00;;;;2207976;26;21682;-60
2024/04/13 03:47:37;;;;;;;2.40;1.30;;;;;20.20;101528.00;;;;2219352;26;20293;-56
2024/04/13 03:48:38;;;;;;;2.83;1.67;;;;;20.10;101526.00;;;;2216503;26;20255;-57
2024/04/13 03:49:38;;;;;;;2.87;1.47;;;;;20.20;101526.00;;;;2222867;26;20366;-59
2024/04/13 03:50:39;;;;;;;2.20;1.37;;;;;20.20;101522.00;;;;2223857;26;20473;-58
2024/04/13 03:51:40;;;;;;;2.80;1.88;;;;;20.20;101564.00;;;;2215751;26;21316;-57
2024/04/13 03:52:41;;;;;;;2.97;1.60;;;;;20.10;101529.00;;;;2215046;26;20255;-56
2024/04/13 03:53:41;;;;;;;2.45;1.20;;;;;20.20;101531.00;;;;2220468;26;20251;-56
2024/04/13 03:54:42;;;;;;;2.33;1.30;;;;;20.20;101529.00;;;;2218044;26;20323;-57
2024/04/13 03:55:42;;;;;;;2.90;1.60;;;;;20.20;101534.00;;;;2222576;26;20262;-58
2024/04/13 03:56:42;;;;;;;3.10;1.00;;;;;20.20;101525.00;;;;2209257;26;20259;-57
2024/04/13 03:57:43;;;;;;;2.50;1.43;;;;;20.20;101531.00;;;;2219522;26;20255;-56
2024/04/13 03:58:43;;;;;;;2.57;1.50;;;;;20.20;101532.00;;;;2222682;26;20281;-55
2024/04/13 03:59:43;;;;;;;2.43;1.40;;;;;20.10;101519.00;;;;2219834;26;20301;-56
2024/04/13 04:00:44;;;;;;;2.10;1.20;;;;;20.10;101526.00;;;;2225708;26;20258;-56
2024/04/13 04:01:44;;;;;;;2.87;1.50;;;;;20.20;101537.00;;;;2216544;26;20309;-55
2024/04/13 04:02:44;;;;;;;2.63;1.50;;;;;20.10;101552.00;;;;2220241;26;20716;-60
2024/04/13 04:03:44;;;;;;;2.80;1.53;;;;;20.20;101536.00;;;;2220023;26;20836;-57
2024/04/13 04:04:45;;;;;;;2.90;1.70;;;;;20.20;101538.00;;;;2215836;26;20271;-58
2024/04/13 04:05:51;;;;;;;2.73;1.70;;;;;20.10;101538.00;;;;2223053;26;20349;-56
2024/04/13 04:06:52;;;;;;;2.70;1.35;;;;;20.10;101531.00;;;;2211807;26;20255;-54
2024/04/13 04:07:52;;;;;;;2.17;1.30;;;;;20.20;101534.00;;;;2230835;26;20246;-56
2024/04/13 04:08:52;;;;;;;2.43;1.40;;;;;20.10;101538.00;;;;2231714;26;20351;-56
2024/04/13 04:09:53;;;;;;;2.63;1.30;;;;;20.10;101536.00;;;;2228013;26;20888;-55
2024/04/13 04:10:53;;;;;;;2.40;1.60;;;;;20.10;101536.00;;;;2213677;26;20255;-58
2024/04/13 04:11:54;;;;;;;5.20;1.50;;;;;20.10;101527.00;;;;2221456;26;20731;-59
2024/04/13 04:12:54;;;;;;;4.77;1.70;;;;;20.10;101546.00;;;;2219799;26;20716;-59
2024/04/13 04:13:54;;;;;;;2.40;1.53;;;;;20.10;101533.00;;;;2220299;26;20251;-56
2024/04/13 04:14:55;;;;;;;2.60;1.40;;;;;20.10;101534.00;;;;2221019;26;20259;-57
2024/04/13 04:15:55;;;;;;;2.73;1.80;;;;;20.10;101529.00;;;;2208719;26;20259;-58
2024/04/13 04:16:55;;;;;;;2.10;1.33;;;;;20.20;101532.00;;;;2240976;26;20292;-58
2024/04/13 04:17:56;;;;;;;3.23;1.50;;;;;20.20;101535.00;;;;2238941;26;20410;-57
2024/04/13 04:18:56;;;;;;;3.23;1.70;;;;;20.10;101529.00;;;;2222593;26;20297;-57
2024/04/13 04:19:56;;;;;;;3.30;1.80;;;;;20.10;101530.00;;;;2218460;26;20263;-57
2024/04/13 04:20:56;;;;;;;2.40;1.50;;;;;20.10;101531.00;;;;2225786;26;20246;-54
2024/04/13 04:21:57;;;;;;;2.73;1.30;;;;;20.10;101526.00;;;;2228638;26;20250;-56
2024/04/13 04:22:57;;;;;;;2.20;1.33;;;;;20.20;101534.00;;;;2225214;26;20290;-58
2024/04/13 04:23:58;;;;;;;2.20;1.20;;;;;20.20;101530.00;;;;2233995;26;20254;-56
2024/04/13 04:24:58;;;;;;;2.47;1.53;;;;;20.10;101535.00;;;;2225813;26;20344;-57
2024/04/13 04:25:59;;;;;;;2.87;1.37;;;;;20.10;101529.00;;;;2208109;26;20263;-57
2024/04/13 04:27:04;;;;;;;2.50;1.37;;;;;20.10;101537.00;;;;2228096;26;20301;-56
2024/04/13 04:28:05;;;;;;;2.63;1.27;;;;;20.10;101532.00;;;;2228862;26;20262;-60
2024/04/13 04:29:05;;;;;;;2.27;1.53;;;;;20.20;101538.00;;;;2227029;26;20377;-56
2024/04/13 04:30:06;;;;;;;2.60;1.53;;;;;20.10;101530.00;;;;2230201;26;20598;-59
2024/04/13 04:31:11;;;;;;;3.00;1.33;;;;;20.10;101537.00;;;;2210949;26;20251;-57
2024/04/13 04:32:12;;;;;;;3.10;1.80;;;;;20.10;101543.00;;;;2219596;26;20255;-56
2024/04/13 04:33:13;;;;;;;2.85;1.75;;;;;20.10;101535.00;;;;2226531;26;20369;-55
2024/04/13 04:34:13;;;;;;;2.40;1.27;;;;;20.10;101540.00;;;;2223347;26;20761;-57
2024/04/13 04:35:14;;;;;;;4.07;1.50;;;;;20.10;101543.00;;;;2219676;26;20302;-55
2024/04/13 04:36:15;;;;;;;2.30;1.40;;;;;20.10;101543.00;;;;2211798;26;20263;-58
2024/04/13 04:37:15;;;;;;;3.57;1.50;;;;;20.10;101540.00;;;;2220984;26;20263;-59
2024/04/13 04:38:15;;;;;;;2.40;1.20;;;;;20.10;101548.00;;;;2228648;26;20296;-59
2024/04/13 04:39:17;;;;;;;2.67;1.50;;;;;20.10;101544.00;;;;2230140;26;20250;-57
2024/04/13 04:40:18;;;;;;;2.42;1.30;;;;;20.10;101560.00;;;;2219714;26;20290;-55
2024/04/13 04:41:18;;;;;;;2.37;1.30;;;;;20.10;101549.00;;;;2210719;26;20259;-56
2024/04/13 04:42:18;;;;;;;2.40;1.40;;;;;20.10;101545.00;;;;2219238;26;20748;-58
2024/04/13 04:43:18;;;;;;;2.60;1.50;;;;;20.10;101549.00;;;;2216639;26;20993;-57
2024/04/13 04:44:19;;;;;;;3.30;1.53;;;;;20.10;101440.00;;;;2218804;26;20627;-59
2024/04/13 04:45:19;;;;;;;2.43;1.40;;;;;20.10;101543.00;;;;2219633;26;20879;-59
2024/04/13 04:46:21;;;;;;;4.70;1.80;;;;;20.10;101538.00;;;;2210463;26;20355;-58
2024/04/13 04:47:21;;;;;;;3.47;1.70;;;;;20.10;101549.00;;;;2218607;26;20597;-56
2024/04/13 04:48:22;;;;;;;2.10;1.23;;;;;20.10;101549.00;;;;2223837;26;20533;-56
2024/04/13 04:49:22;;;;;;;2.90;1.73;;;;;20.10;101536.00;;;;2225249;26;20273;-55
2024/04/13 04:50:22;;;;;;;2.30;1.27;;;;;19.70;101545.00;;;;2231820;26;20346;-56
2024/04/13 04:51:23;;;;;;;2.33;1.30;;;;;19.90;101547.00;;;;2212038;26;20271;-55
2024/04/13 04:52:23;;;;;;;2.30;1.40;;;;;20.10;101550.00;;;;2218713;26;20286;-60
2024/04/13 04:53:26;;;;;;;2.30;1.30;;;;;20.10;101544.00;;;;2220160;26;20247;-59
2024/04/13 04:54:27;;;;;;;2.20;1.30;;;;;20.10;101545.00;;;;2218031;26;20259;-56
2024/04/13 04:55:28;;;;;;;2.40;1.63;;;;;20.10;101540.00;;;;2219674;26;20251;-57
2024/04/13 04:56:28;;;;;;;3.00;1.60;;;;;20.10;101543.00;;;;2222205;26;20300;-56
2024/04/13 04:57:28;;;;;;;2.80;1.23;;;;;20.10;101545.00;;;;2226566;26;20970;-55
2024/04/13 04:58:29;;;;;;;2.23;1.37;;;;;20.10;101542.00;;;;2232530;26;20309;-55
2024/04/13 04:59:29;;;;;;;3.03;1.80;;;;;20.10;101535.00;;;;2219660;26;20310;-56
2024/04/13 05:00:29;;;;;;;2.37;1.23;;;;;20.10;101536.00;;;;2222451;26;20255;-58